Relevés horaires Bierset (Belgique)


Relevés horaires à Bierset - Dimanche 08 Juill. 2018
Heure UTC1 Température [°C] Vent [km/h] Hum. [%] Pres.4 [hPa] Visi. [Km] Nébu. [octa] Préc.5 [mm] Cond.
2m. Res. Ros. Dir.2 Vit. Moy. Raf.3
23:00 15.9 15.9 9.8 NNO 3.7 5.6 7.4 67 1024.6(0.8/3h) 30 1/8 -- --
22:00 17.2 17.2 9.5 N 3.7 7.4 11.1 61 1024.5(1.0/3h) 30 1/8 -- --
21:00 18.2 18.2 9.8 N 5.6 7.4 11.1 58 1024.3(0.9/3h) 30 1/8 -- --
20:00 20.6 20.6 10.5 N 5.6 7.4 11.1 52 1023.5(-0.1/3h) 30 1/8 -- --
19:00 22.7 22.7 10.7 NNO 7.4 7.4 11.1 47 1023.1(-0.4/3h) 30 1/8 -- --
18:00 23.8 23.8 9.8 NNO 7.4 9.3 14.8 41 1023(-0.6/3h) 30 1/8 0/12h
--
17:00 24.5 24.5 9.5 N 7.4 9.3 13.0 39 1023.1(-0.7/3h) 30 1/8 -- --
16:00 24.8 24.8 10.1 N 7.4 9.3 14.8 39 1023.3(-0.7/3h) 30 1/8 -- --
15:00 24.2 24.2 10.0 NNE 7.4 9.3 14.8 41 1023.5(-0.7/3h) 30 2/8 -- --
14:00 24.0 24.0 9.8 N 5.6 9.3 14.8 41 1023.9(-0.9/3h) 30 2/8 -- --
13:00 23.0 23.0 9.9 NNO 5.6 9.3 14.8 43 1024.1(-0.9/3h) 30 2/8 -- --
12:00 22.6 22.6 10.0 N 9.3 11.1 16.7 45 1024.4(-0.9/3h) 30 2/8 0/6h
--
11:00 21.4 21.4 10.2 NNE 5.6 11.1 16.7 49 1025(0.1/3h) 30 1/8 -- --
10:00 21.1 21.1 10.0 NNE 5.6 9.3 14.8 49 1025.2(0.3/3h) 30 1/8 -- --
09:00 19.5 19.5 9.0 ENE 5.6 7.4 16.7 51 1025.5(0.6/3h) 30 2/8 -- --
08:00 18.1 18.1 7.7 ENE 5.6 5.6 9.3 51 1025.3(0.6/3h) 30 6/8 -- --
07:00 16.4 16.4 9.2 ENE 3.7 5.6 9.3 62 1025.3(0.9/3h) 30 3/8 -- --
06:00 14.4 14.4 10.2 NNE 3.7 7.4 9.3 76 1025.3(0.8/3h) 30 3/8 0/12h
--
05:00 13.8 13.8 9.7 N 3.7 5.6 7.4 76 1025(0.4/3h) 30 1/8 -- --
04:00 13.4 13.4 9.3 NNE 3.7 3.7 7.4 76 1024.6(0.2/3h) 30 1/8 -- --
03:00 14.7 14.7 8.7 NNE 1.9 5.6 7.4 67 1024.4(0.3/3h) 30 0/8 -- --
02:00 15.3 15.3 8.7 NNE 3.7 3.7 3.7 65 1024.5(0.4/3h) 30 0/8 -- --
01:00 15.0 15.0 8.9 NNE 3.7 5.6 7.4 67 1024.3(0.1/3h) 30 0/8 -- --
00:00 16.4 16.4 9.6 NNE 5.6 7.4 11.1 64 1024(0.1/3h) 30 0/8 0/6h
0/24h
--

1 Coordinated Universal Time. Actuellement il est 12:00 locale et 10:00 UTC.

2 Le vent souffle depuis la direction indiquée vers la direction oposée.

3 Les rafales max. sont disponible 40 min après l'heure du relevé.

4 Pour les stations d'altitude (plus de 600m) le géopotentiel du niveau le plus proche de la pression obligatoire est indiqué.

5 Les stations disposant d'un diffuseur peuvent indiquer "trace". Cela signifie que des précipitations ont touchés le sol mais que la quantité est inférieure à 0.1 mm.

Récapitulatif de la journée
Température [°C] Vent [km/h] Ensoleillement4 [h] Precipitations totale5 [mm] Pression [Hpa]
Min1 Max.2 Moy.3 Max. Min Max.
13.4 25.2 7.5 16.7 0 h 0 min 0 1023.0 1025.5

1 Température minimale relevée entre 18:00 UTC la veille et 18:00 UTC le jour donné.

2 Température maximale relevée entre 06:00 UTC le jour donné et 06:00 UTC le lendemain.

3 Vent moyen de la journée basé sur les relevés horaires.

4 Ensoleillement en heures relevé entre 06:00 UTC la veille et 06:00 UTC le jour donné.

5 Précipitations totales tombées entre 06:00 UTC la jour donné et 06:00 UTC le lendemain.

Graphiques horaires